createdAt,value
2022-07-25T00:00:52.445Z,0.00
2022-07-25T00:01:52.531Z,0.00
2022-07-25T00:02:52.408Z,0.00
2022-07-25T00:03:52.441Z,0.00
2022-07-25T00:04:52.447Z,0.00
2022-07-25T00:05:52.364Z,0.00
2022-07-25T00:06:52.360Z,0.00
2022-07-25T00:07:52.343Z,0.00
2022-07-25T00:08:52.328Z,0.00
2022-07-25T00:09:52.313Z,0.00
2022-07-25T00:10:52.297Z,0.00
2022-07-25T00:11:52.283Z,0.00
2022-07-25T00:12:52.271Z,0.00
2022-07-25T00:13:52.262Z,0.00
2022-07-25T00:14:52.255Z,0.00
2022-07-25T00:15:52.325Z,0.00
2022-07-25T00:16:52.225Z,0.00
2022-07-25T00:17:52.205Z,0.00
2022-07-25T00:18:52.190Z,0.00
2022-07-25T00:19:52.175Z,0.00
2022-07-25T00:20:52.170Z,0.00
2022-07-25T00:21:52.153Z,0.00
2022-07-25T00:22:52.147Z,0.00
2022-07-25T00:23:52.130Z,0.00
2022-07-25T00:24:52.114Z,0.00
2022-07-25T00:25:52.095Z,0.00
2022-07-25T00:26:52.083Z,0.00
2022-07-25T00:27:52.069Z,0.00
2022-07-25T00:28:52.059Z,0.00
2022-07-25T00:29:52.042Z,0.00
2022-07-25T00:30:52.078Z,0.00
2022-07-25T00:31:52.014Z,0.00
2022-07-25T00:32:52.007Z,0.00
2022-07-25T00:33:51.993Z,0.00
2022-07-25T00:34:51.987Z,0.00
2022-07-25T00:35:51.962Z,0.00
2022-07-25T00:36:51.959Z,0.00
2022-07-25T00:37:51.938Z,0.00
2022-07-25T00:38:51.928Z,0.00
2022-07-25T00:39:51.908Z,0.00
2022-07-25T00:40:54.449Z,0.00
2022-07-25T00:41:51.885Z,0.00
2022-07-25T00:42:51.883Z,0.00
2022-07-25T00:43:51.858Z,0.00
2022-07-25T00:44:51.853Z,0.00
2022-07-25T00:45:51.835Z,0.00
2022-07-25T00:46:51.990Z,0.00
2022-07-25T00:47:51.816Z,0.00
2022-07-25T00:48:51.891Z,0.00
2022-07-25T00:49:51.772Z,0.00
2022-07-25T00:50:51.763Z,0.00
2022-07-25T00:51:51.750Z,0.00
2022-07-25T00:52:51.740Z,0.00
2022-07-25T00:53:51.726Z,0.00
2022-07-25T00:54:51.712Z,0.00
2022-07-25T00:55:51.699Z,0.00
2022-07-25T00:56:51.694Z,0.00
2022-07-25T00:57:51.685Z,0.00
2022-07-25T00:58:51.664Z,0.00
2022-07-25T00:59:51.646Z,0.00
2022-07-25T01:00:51.641Z,0.00
2022-07-25T01:01:51.673Z,0.00
2022-07-25T01:02:51.744Z,0.00
2022-07-25T01:03:51.594Z,0.00
2022-07-25T01:04:51.582Z,0.00
2022-07-25T01:05:53.720Z,0.00
2022-07-25T01:06:51.554Z,0.00
2022-07-25T01:07:51.786Z,0.00
2022-07-25T01:08:51.529Z,0.00
2022-07-25T01:09:51.516Z,0.00
2022-07-25T01:10:51.512Z,0.00
2022-07-25T01:11:51.491Z,0.00
2022-07-25T01:12:51.478Z,0.00
2022-07-25T01:13:51.462Z,0.00
2022-07-25T01:14:51.452Z,0.00
2022-07-25T01:15:51.506Z,0.00
2022-07-25T01:16:51.423Z,0.00
2022-07-25T01:17:51.414Z,0.00
2022-07-25T01:18:51.406Z,0.00
2022-07-25T01:19:51.382Z,0.00
2022-07-25T01:20:51.371Z,0.00
2022-07-25T01:21:51.356Z,0.00
2022-07-25T01:22:51.344Z,0.00
2022-07-25T01:23:51.324Z,0.00
2022-07-25T01:24:51.321Z,0.00
2022-07-25T01:25:51.306Z,0.00
2022-07-25T01:26:51.293Z,0.00
2022-07-25T01:27:55.194Z,0.00
2022-07-25T01:28:51.265Z,0.00
2022-07-25T01:29:51.249Z,0.00
2022-07-25T01:30:51.298Z,0.00
2022-07-25T01:31:51.222Z,0.00
2022-07-25T01:32:51.215Z,0.00
2022-07-25T01:33:51.196Z,0.00
2022-07-25T01:34:51.191Z,0.00
2022-07-25T01:35:51.168Z,0.00
2022-07-25T01:36:51.162Z,0.00
2022-07-25T01:37:51.143Z,0.00
2022-07-25T01:38:51.126Z,0.00
2022-07-25T01:39:51.122Z,0.00
2022-07-25T01:40:51.106Z,0.00
2022-07-25T01:41:51.091Z,0.00
2022-07-25T01:42:51.083Z,0.00
2022-07-25T01:43:51.062Z,0.00
2022-07-25T01:44:51.053Z,0.00
2022-07-25T01:45:51.095Z,0.00
2022-07-25T01:46:51.032Z,0.00
2022-07-25T01:47:51.017Z,0.00
2022-07-25T01:48:51.040Z,0.00
2022-07-25T01:49:50.989Z,0.00
2022-07-25T01:50:50.978Z,0.00
2022-07-25T01:51:50.966Z,0.00
2022-07-25T01:52:50.949Z,0.00
2022-07-25T01:53:50.939Z,0.00
2022-07-25T01:54:50.928Z,0.00
2022-07-25T01:55:50.911Z,0.00
2022-07-25T01:56:50.902Z,0.00
2022-07-25T01:57:50.884Z,0.00
2022-07-25T01:58:50.879Z,0.00
2022-07-25T01:59:50.858Z,0.00
2022-07-25T02:00:50.852Z,0.00
2022-07-25T02:01:50.912Z,0.00
2022-07-25T02:02:50.823Z,0.00
2022-07-25T02:03:50.810Z,0.00
2022-07-25T02:04:50.867Z,0.00
2022-07-25T02:05:50.774Z,0.00
2022-07-25T02:06:50.766Z,0.00
2022-07-25T02:07:50.751Z,0.00
2022-07-25T02:08:50.738Z,0.00
2022-07-25T02:09:56.338Z,0.00
2022-07-25T02:10:50.719Z,0.00
2022-07-25T02:11:50.701Z,0.00
2022-07-25T02:12:50.895Z,0.00
2022-07-25T02:13:50.680Z,0.00
2022-07-25T02:14:50.670Z,0.00
2022-07-25T02:15:50.649Z,0.00
2022-07-25T02:16:50.715Z,0.00
2022-07-25T02:17:50.620Z,0.00
2022-07-25T02:18:50.613Z,0.00
2022-07-25T02:19:50.594Z,0.00
2022-07-25T02:20:50.584Z,0.00
2022-07-25T02:21:50.577Z,0.00
2022-07-25T02:22:50.565Z,0.00
2022-07-25T02:23:50.546Z,0.00
2022-07-25T02:24:50.542Z,0.00
2022-07-25T02:25:50.518Z,0.00
2022-07-25T02:26:50.515Z,0.00
2022-07-25T02:27:50.497Z,0.00
2022-07-25T02:28:50.479Z,0.00
2022-07-25T02:29:50.466Z,0.00
2022-07-25T02:30:50.494Z,0.00
2022-07-25T02:31:50.437Z,0.00
2022-07-25T02:32:50.435Z,0.00
2022-07-25T02:33:50.420Z,0.00
2022-07-25T02:34:50.410Z,0.00
2022-07-25T02:35:50.392Z,0.00
2022-07-25T02:36:50.391Z,0.00
2022-07-25T02:37:50.365Z,0.00
2022-07-25T02:38:50.358Z,0.00
2022-07-25T02:39:50.355Z,0.00
2022-07-25T02:40:50.328Z,0.00
2022-07-25T02:41:50.305Z,0.00
2022-07-25T02:42:50.301Z,0.00
2022-07-25T02:43:50.282Z,0.00
2022-07-25T02:44:50.276Z,0.00
2022-07-25T02:45:50.310Z,0.00
2022-07-25T02:46:50.248Z,0.00
2022-07-25T02:47:50.229Z,0.00
2022-07-25T02:48:50.262Z,0.00
2022-07-25T02:49:50.206Z,0.00
2022-07-25T02:50:50.196Z,0.00
2022-07-25T02:51:50.185Z,0.00
2022-07-25T02:52:50.206Z,0.00
2022-07-25T02:53:58.747Z,0.00
2022-07-25T02:54:51.166Z,0.00
2022-07-25T02:55:50.124Z,0.00
2022-07-25T02:56:50.109Z,0.00
2022-07-25T02:57:50.109Z,0.00
2022-07-25T02:58:50.091Z,0.00
2022-07-25T02:59:50.079Z,0.00
2022-07-25T03:00:50.085Z,0.00
2022-07-25T03:01:50.121Z,0.00
2022-07-25T03:02:50.037Z,0.00
2022-07-25T03:03:50.106Z,0.00
2022-07-25T03:04:50.011Z,0.00
2022-07-25T03:05:49.994Z,0.00
2022-07-25T03:06:49.977Z,0.00
2022-07-25T03:07:49.967Z,0.00
2022-07-25T03:08:49.953Z,0.00
2022-07-25T03:09:49.940Z,0.00
2022-07-25T03:10:49.928Z,0.00
2022-07-25T03:11:49.920Z,0.00
2022-07-25T03:12:49.896Z,0.00
2022-07-25T03:13:49.894Z,0.00
2022-07-25T03:14:49.882Z,0.00
2022-07-25T03:15:49.870Z,0.00
2022-07-25T03:16:49.938Z,4.00
2022-07-25T03:17:49.941Z,4.00
2022-07-25T03:18:49.821Z,0.00
2022-07-25T03:19:49.817Z,0.00
2022-07-25T03:20:49.809Z,4.00
2022-07-25T03:21:49.781Z,4.00
2022-07-25T03:22:49.772Z,4.00
2022-07-25T03:23:52.705Z,4.00
2022-07-25T03:24:49.739Z,4.00
2022-07-25T03:25:49.789Z,8.00
2022-07-25T03:26:49.753Z,4.00
2022-07-25T03:27:49.717Z,8.00
2022-07-25T03:28:49.696Z,8.00
2022-07-25T03:29:49.678Z,12.00
2022-07-25T03:30:49.675Z,12.00
2022-07-25T03:31:49.677Z,16.00
2022-07-25T03:32:49.645Z,16.00
2022-07-25T03:33:49.632Z,20.00
2022-07-25T03:34:49.612Z,24.00
2022-07-25T03:35:49.596Z,28.00
2022-07-25T03:36:49.587Z,32.00
2022-07-25T03:37:49.568Z,32.00
2022-07-25T03:38:49.553Z,40.00
2022-07-25T03:39:49.544Z,44.00
2022-07-25T03:40:49.529Z,48.00
2022-07-25T03:41:49.519Z,60.00
2022-07-25T03:42:49.503Z,64.00
2022-07-25T03:43:49.491Z,72.00
2022-07-25T03:44:49.474Z,80.00
2022-07-25T03:45:49.545Z,92.00
2022-07-25T03:46:49.455Z,100.00
2022-07-25T03:47:49.440Z,108.00
2022-07-25T03:48:49.463Z,124.00
2022-07-25T03:49:49.412Z,132.00
2022-07-25T03:50:49.402Z,144.00
2022-07-25T03:51:49.385Z,156.00
2022-07-25T03:52:49.379Z,168.00
2022-07-25T03:53:49.353Z,180.00
2022-07-25T03:54:49.343Z,192.00
2022-07-25T03:55:49.329Z,208.00
2022-07-25T03:56:49.318Z,224.00
2022-07-25T03:57:49.306Z,236.00
2022-07-25T03:58:49.298Z,248.00
2022-07-25T03:59:49.286Z,264.00
2022-07-25T04:00:49.314Z,284.00
2022-07-25T04:01:49.355Z,300.00
2022-07-25T04:02:49.309Z,312.00
2022-07-25T04:03:49.219Z,332.00
2022-07-25T04:04:49.212Z,352.00
2022-07-25T04:05:49.197Z,372.00
2022-07-25T04:06:49.185Z,388.00
2022-07-25T04:07:49.173Z,404.00
2022-07-25T04:08:49.160Z,424.00
2022-07-25T04:09:49.148Z,444.00
2022-07-25T04:10:49.137Z,464.00
2022-07-25T04:11:49.119Z,484.00
2022-07-25T04:12:49.112Z,504.00
2022-07-25T04:13:49.098Z,520.00
2022-07-25T04:14:49.084Z,540.00
2022-07-25T04:15:49.066Z,560.00
2022-07-25T04:16:49.144Z,580.00
2022-07-25T04:17:49.039Z,596.00
2022-07-25T04:18:49.021Z,616.00
2022-07-25T04:19:49.056Z,636.00
2022-07-25T04:20:48.998Z,652.00
2022-07-25T04:21:48.982Z,672.00
2022-07-25T04:22:48.980Z,692.00
2022-07-25T04:23:48.953Z,712.00
2022-07-25T04:24:48.946Z,724.00
2022-07-25T04:25:48.933Z,744.00
2022-07-25T04:26:48.927Z,764.00
2022-07-25T04:27:48.909Z,784.00
2022-07-25T04:28:48.895Z,804.00
2022-07-25T04:29:48.876Z,824.00
2022-07-25T04:30:48.865Z,840.00
2022-07-25T04:31:48.997Z,864.00
2022-07-25T04:32:48.840Z,884.00
2022-07-25T04:33:48.831Z,904.00
2022-07-25T04:34:48.818Z,876.00
2022-07-25T04:35:48.803Z,940.00
2022-07-25T04:36:48.793Z,960.00
2022-07-25T04:37:48.775Z,976.00
2022-07-25T04:38:48.769Z,1000.00
2022-07-25T04:39:48.758Z,1000.00
2022-07-25T04:40:48.739Z,1044.00
2022-07-25T04:41:48.722Z,1064.00
2022-07-25T04:42:48.704Z,1080.00
2022-07-25T04:43:49.147Z,1104.00
2022-07-25T04:44:48.681Z,1120.00
2022-07-25T04:45:48.719Z,1140.00
2022-07-25T04:46:48.655Z,1164.00
2022-07-25T04:47:48.639Z,1180.00
2022-07-25T04:48:48.719Z,1196.00
2022-07-25T04:49:48.613Z,1216.00
2022-07-25T04:50:48.607Z,1232.00
2022-07-25T04:51:48.593Z,1256.00
2022-07-25T04:52:48.580Z,1272.00
2022-07-25T04:53:48.561Z,1292.00
2022-07-25T04:54:48.551Z,1312.00
2022-07-25T04:55:48.536Z,1328.00
2022-07-25T04:56:48.530Z,1348.00
2022-07-25T04:57:48.508Z,1368.00
2022-07-25T04:58:48.493Z,1388.00
2022-07-25T04:59:48.480Z,1412.00
2022-07-25T05:00:48.567Z,1432.00
2022-07-25T05:01:48.505Z,1448.00
2022-07-25T05:02:48.479Z,1468.00
2022-07-25T05:03:50.337Z,1484.00
2022-07-25T05:04:48.425Z,1500.00
2022-07-25T05:05:48.399Z,1520.00
2022-07-25T05:06:48.397Z,1540.00
2022-07-25T05:07:48.375Z,1556.00
2022-07-25T05:08:48.368Z,1572.00
2022-07-25T05:09:48.349Z,1588.00
2022-07-25T05:10:48.339Z,1604.00
2022-07-25T05:11:52.834Z,1616.00
2022-07-25T05:12:48.310Z,1628.00
2022-07-25T05:13:48.301Z,1648.00
2022-07-25T05:14:48.288Z,1660.00
2022-07-25T05:15:48.273Z,1676.00
2022-07-25T05:16:48.334Z,1692.00
2022-07-25T05:17:48.345Z,1708.00
2022-07-25T05:18:48.233Z,1728.00
2022-07-25T05:19:48.223Z,1748.00
2022-07-25T05:20:48.213Z,1768.00
2022-07-25T05:21:48.185Z,1792.00
2022-07-25T05:22:48.383Z,1816.00
2022-07-25T05:23:48.168Z,1840.00
2022-07-25T05:24:48.153Z,1864.00
2022-07-25T05:25:48.132Z,1888.00
2022-07-25T05:26:48.122Z,1912.00
2022-07-25T05:27:48.106Z,1936.00
2022-07-25T05:28:48.097Z,1956.00
2022-07-25T05:29:48.088Z,1972.00
2022-07-25T05:30:48.084Z,1984.00
2022-07-25T05:31:48.122Z,2008.00
2022-07-25T05:32:48.051Z,2036.00
2022-07-25T05:33:48.037Z,2060.00
2022-07-25T05:34:48.021Z,2084.00
2022-07-25T05:35:48.007Z,2104.00
2022-07-25T05:36:48.001Z,2132.00
2022-07-25T05:37:47.980Z,2156.00
2022-07-25T05:38:47.970Z,2184.00
2022-07-25T05:39:47.954Z,2204.00
2022-07-25T05:40:47.945Z,2224.00
2022-07-25T05:41:47.927Z,2252.00
2022-07-25T05:42:47.921Z,2272.00
2022-07-25T05:43:47.902Z,2296.00
2022-07-25T05:44:47.889Z,2320.00
2022-07-25T05:45:47.879Z,2336.00
2022-07-25T05:46:47.961Z,2364.00
2022-07-25T05:47:47.847Z,2388.00
2022-07-25T05:48:47.932Z,2416.00
2022-07-25T05:49:47.829Z,2432.00
2022-07-25T05:50:47.817Z,2448.00
2022-07-25T05:51:47.795Z,2464.00
2022-07-25T05:52:47.786Z,2480.00
2022-07-25T05:53:47.770Z,2512.00
2022-07-25T05:54:47.767Z,2556.00
2022-07-25T05:55:47.746Z,2584.00
2022-07-25T05:56:47.732Z,2596.00
2022-07-25T05:57:47.714Z,2612.00
2022-07-25T05:58:47.709Z,2628.00
2022-07-25T05:59:47.693Z,2652.00
2022-07-25T06:00:47.682Z,2672.00
2022-07-25T06:01:47.752Z,2704.00
2022-07-25T06:02:47.820Z,2732.00
2022-07-25T06:03:47.748Z,2760.00
2022-07-25T06:04:47.627Z,2796.00
2022-07-25T06:05:47.610Z,2828.00
2022-07-25T06:06:47.667Z,2864.00
2022-07-25T06:07:47.581Z,2908.00
2022-07-25T06:08:47.579Z,2936.00
2022-07-25T06:09:47.563Z,2956.00
2022-07-25T06:10:47.552Z,2968.00
2022-07-25T06:11:54.705Z,2980.00
2022-07-25T06:12:47.559Z,3000.00
2022-07-25T06:13:47.507Z,3024.00
2022-07-25T06:14:47.498Z,3036.00
2022-07-25T06:15:47.481Z,3040.00
2022-07-25T06:16:47.591Z,3064.00
2022-07-25T06:17:47.447Z,3084.00
2022-07-25T06:18:47.439Z,3108.00
2022-07-25T06:19:47.430Z,3112.00
2022-07-25T06:20:47.417Z,3116.00
2022-07-25T06:21:47.397Z,3140.00
2022-07-25T06:22:47.394Z,3160.00
2022-07-25T06:23:47.377Z,3196.00
2022-07-25T06:24:47.364Z,3248.00
2022-07-25T06:25:50.166Z,3288.00
2022-07-25T06:26:47.338Z,3320.00
2022-07-25T06:27:47.326Z,3352.00
2022-07-25T06:28:47.316Z,3388.00
2022-07-25T06:29:47.296Z,3440.00
2022-07-25T06:30:47.289Z,3476.00
2022-07-25T06:31:47.591Z,3520.00
2022-07-25T06:32:47.261Z,3564.00
2022-07-25T06:33:47.250Z,3596.00
2022-07-25T06:34:47.234Z,3644.00
2022-07-25T06:35:47.216Z,3692.00
2022-07-25T06:36:47.206Z,3748.00
2022-07-25T06:37:47.189Z,3816.00
2022-07-25T06:38:47.188Z,3868.00
2022-07-25T06:39:47.240Z,3916.00
2022-07-25T06:40:47.158Z,3992.00
2022-07-25T06:41:47.199Z,4060.00
2022-07-25T06:42:47.127Z,4160.00
2022-07-25T06:43:47.110Z,4244.00
2022-07-25T06:44:47.102Z,4332.00
2022-07-25T06:45:47.088Z,4428.00
2022-07-25T06:46:47.172Z,4504.00
2022-07-25T06:47:47.068Z,4584.00
2022-07-25T06:48:47.188Z,4760.00
2022-07-25T06:49:47.040Z,4832.00
2022-07-25T06:50:47.029Z,5064.00
2022-07-25T06:51:47.019Z,5316.00
2022-07-25T06:52:47.004Z,5536.00
2022-07-25T06:53:46.982Z,5604.00
2022-07-25T06:54:46.985Z,6860.00
2022-07-25T06:55:46.957Z,9884.00
2022-07-25T06:56:46.946Z,8052.00
2022-07-25T06:57:46.927Z,14048.00
2022-07-25T06:58:46.923Z,23392.00
2022-07-25T06:59:46.909Z,25344.00
2022-07-25T07:00:46.939Z,24576.00
2022-07-25T07:01:51.360Z,17632.00
2022-07-25T07:02:46.879Z,8012.00
2022-07-25T07:03:46.960Z,11976.00
2022-07-25T07:04:46.849Z,21760.00
2022-07-25T07:05:46.891Z,28640.00
2022-07-25T07:06:46.819Z,30304.00
2022-07-25T07:07:47.966Z,30112.00
2022-07-25T07:08:46.856Z,29088.00
2022-07-25T07:09:46.782Z,29664.00
2022-07-25T07:10:46.779Z,24096.00
2022-07-25T07:11:46.754Z,14048.00
2022-07-25T07:12:46.763Z,12856.00
2022-07-25T07:13:46.727Z,16832.00
2022-07-25T07:14:46.717Z,10940.00
2022-07-25T07:15:46.769Z,5496.00
2022-07-25T07:16:46.753Z,4660.00
2022-07-25T07:17:46.676Z,4292.00
2022-07-25T07:18:49.380Z,4152.00
2022-07-25T07:19:46.655Z,4148.00
2022-07-25T07:20:46.642Z,4068.00
2022-07-25T07:21:46.626Z,3996.00
2022-07-25T07:22:46.615Z,3996.00
2022-07-25T07:23:46.602Z,4040.00
2022-07-25T07:24:48.065Z,4064.00
2022-07-25T07:25:46.577Z,4120.00
2022-07-25T07:26:46.566Z,4236.00
2022-07-25T07:27:46.552Z,4380.00
2022-07-25T07:28:46.542Z,4488.00
2022-07-25T07:29:46.568Z,4520.00
2022-07-25T07:31:46.628Z,4404.00
2022-07-25T07:32:46.485Z,4592.00
2022-07-25T07:33:46.476Z,4644.00
2022-07-25T07:34:46.517Z,4816.00
2022-07-25T07:35:46.461Z,4948.00
2022-07-25T07:36:46.466Z,4828.00
2022-07-25T07:37:46.437Z,4620.00
2022-07-25T07:38:46.436Z,4516.00
2022-07-25T07:39:46.437Z,4520.00
2022-07-25T07:40:46.394Z,4612.00
2022-07-25T07:41:46.376Z,4592.00
2022-07-25T07:42:46.417Z,5032.00
2022-07-25T07:43:46.356Z,5968.00
2022-07-25T07:44:46.337Z,6040.00
2022-07-25T07:45:46.324Z,7020.00
2022-07-25T07:46:46.388Z,8148.00
2022-07-25T07:47:46.301Z,8844.00
2022-07-25T07:48:46.324Z,9816.00
2022-07-25T07:49:50.225Z,11948.00
2022-07-25T07:50:46.257Z,18368.00
2022-07-25T07:51:46.248Z,26048.00
2022-07-25T07:52:46.234Z,36960.00
2022-07-25T07:53:46.228Z,42912.00
2022-07-25T07:54:46.208Z,47552.00
2022-07-25T07:55:46.205Z,49952.00
2022-07-25T07:56:46.185Z,52320.00
2022-07-25T07:57:46.175Z,52800.00
2022-07-25T07:58:46.157Z,50976.00
2022-07-25T07:59:46.156Z,50400.00
2022-07-25T08:00:46.140Z,49952.00
2022-07-25T08:01:46.158Z,49312.00
2022-07-25T08:02:46.161Z,47520.00
2022-07-25T08:03:46.102Z,45696.00
2022-07-25T08:04:46.193Z,46976.00
2022-07-25T08:05:46.076Z,48288.00
2022-07-25T08:06:46.063Z,49536.00
2022-07-25T08:07:46.054Z,52544.00
2022-07-25T08:08:46.037Z,54784.00
2022-07-25T08:09:46.027Z,56672.00
2022-07-25T08:10:46.012Z,56608.00
2022-07-25T08:11:46.004Z,55328.00
2022-07-25T08:12:45.987Z,56576.00
2022-07-25T08:13:45.988Z,55328.00
2022-07-25T08:14:45.963Z,56064.00
2022-07-25T08:15:46.034Z,57792.00
2022-07-25T08:16:45.933Z,59104.00
2022-07-25T08:17:45.927Z,59968.00
2022-07-25T08:18:45.913Z,63296.00
2022-07-25T08:19:45.907Z,63360.00
2022-07-25T08:20:45.892Z,63488.00
2022-07-25T08:21:46.847Z,65760.00
2022-07-25T08:22:45.863Z,65120.00
2022-07-25T08:23:45.853Z,67520.00
2022-07-25T08:24:45.844Z,67424.00
2022-07-25T08:25:45.831Z,66880.00
2022-07-25T08:26:45.816Z,67104.00
2022-07-25T08:27:45.812Z,69280.00
2022-07-25T08:28:46.436Z,65536.00
2022-07-25T08:29:45.791Z,66848.00
2022-07-25T08:30:45.793Z,65792.00
2022-07-25T08:31:45.866Z,65376.00
2022-07-25T08:32:45.752Z,67232.00
2022-07-25T08:33:45.746Z,68320.00
2022-07-25T08:34:45.727Z,70176.00
2022-07-25T08:35:45.716Z,68384.00
2022-07-25T08:36:45.704Z,68928.00
2022-07-25T08:37:45.697Z,68736.00
2022-07-25T08:38:45.684Z,69152.00
2022-07-25T08:39:45.674Z,69824.00
2022-07-25T08:40:45.659Z,69760.00
2022-07-25T08:41:45.652Z,72064.00
2022-07-25T08:42:45.635Z,71296.00
2022-07-25T08:43:45.626Z,71008.00
2022-07-25T08:44:45.613Z,71136.00
2022-07-25T08:45:45.604Z,70688.00
2022-07-25T08:46:45.694Z,73024.00
2022-07-25T08:47:45.584Z,74752.00
2022-07-25T08:48:45.660Z,72352.00
2022-07-25T08:49:45.563Z,74112.00
2022-07-25T08:50:45.547Z,73792.00
2022-07-25T08:51:45.543Z,75712.00
2022-07-25T08:52:45.531Z,77024.00
2022-07-25T08:53:48.559Z,73632.00
2022-07-25T08:54:45.505Z,75200.00
2022-07-25T08:55:45.492Z,75872.00
2022-07-25T08:56:45.477Z,73216.00
2022-07-25T08:57:45.471Z,75456.00
2022-07-25T08:58:45.460Z,69312.00
2022-07-25T08:59:45.449Z,63296.00
2022-07-25T09:00:45.432Z,62880.00
2022-07-25T09:01:45.488Z,60640.00
2022-07-25T09:02:45.444Z,58880.00
2022-07-25T09:03:45.402Z,58240.00
2022-07-25T09:04:45.389Z,57952.00
2022-07-25T09:05:45.387Z,56736.00
2022-07-25T09:06:45.372Z,57248.00
2022-07-25T09:07:45.364Z,59104.00
2022-07-25T09:08:45.349Z,60032.00
2022-07-25T09:09:45.355Z,62016.00
2022-07-25T09:10:45.340Z,61120.00
2022-07-25T09:11:45.322Z,63008.00
2022-07-25T09:12:45.308Z,60576.00
2022-07-25T09:13:45.295Z,60992.00
2022-07-25T09:14:45.280Z,57088.00
2022-07-25T09:15:45.328Z,39168.00
2022-07-25T09:16:45.475Z,21504.00
2022-07-25T09:17:45.259Z,19968.00
2022-07-25T09:18:45.251Z,14016.00
2022-07-25T09:19:45.239Z,11700.00
2022-07-25T09:20:45.222Z,10496.00
2022-07-25T09:21:45.492Z,11472.00
2022-07-25T09:22:45.215Z,15520.00
2022-07-25T09:23:45.195Z,15360.00
2022-07-25T09:24:45.189Z,10600.00
2022-07-25T09:25:45.171Z,9152.00
2022-07-25T09:26:45.157Z,8964.00
2022-07-25T09:27:45.143Z,9020.00
2022-07-25T09:28:45.129Z,9064.00
2022-07-25T09:29:45.125Z,9188.00
2022-07-25T09:30:45.142Z,9416.00
2022-07-25T09:31:45.180Z,9704.00
2022-07-25T09:32:45.086Z,10076.00
2022-07-25T09:33:45.087Z,10600.00
2022-07-25T09:34:45.074Z,11492.00
2022-07-25T09:35:45.070Z,12652.00
2022-07-25T09:36:45.055Z,14848.00
2022-07-25T09:37:45.046Z,25216.00
2022-07-25T09:38:45.034Z,53536.00
2022-07-25T09:39:46.987Z,68832.00
2022-07-25T09:40:45.006Z,76704.00
2022-07-25T09:41:45.007Z,78304.00
2022-07-25T09:42:44.995Z,77408.00
2022-07-25T09:43:44.985Z,78400.00
2022-07-25T09:44:44.974Z,68160.00
2022-07-25T09:45:44.972Z,71616.00
2022-07-25T09:46:45.023Z,74848.00
2022-07-25T09:47:44.941Z,69536.00
2022-07-25T09:48:45.070Z,72448.00
2022-07-25T09:49:44.931Z,75392.00
2022-07-25T09:50:44.914Z,76288.00
2022-07-25T09:51:44.901Z,74880.00
2022-07-25T09:52:44.889Z,81344.00
2022-07-25T09:53:44.876Z,83872.00
2022-07-25T09:54:44.864Z,84448.00
2022-07-25T09:55:44.862Z,89248.00
2022-07-25T09:56:44.843Z,86368.00
2022-07-25T09:57:44.837Z,83840.00
2022-07-25T09:58:44.823Z,83136.00
2022-07-25T09:59:44.826Z,85056.00
2022-07-25T10:00:44.813Z,84640.00
2022-07-25T10:01:44.887Z,87328.00
2022-07-25T10:02:44.900Z,86304.00
2022-07-25T10:03:44.786Z,80288.00
2022-07-25T10:04:44.773Z,82048.00
2022-07-25T10:05:44.794Z,76896.00
2022-07-25T10:06:44.753Z,78752.00
2022-07-25T10:07:44.754Z,87296.00
2022-07-25T10:08:44.730Z,79456.00
2022-07-25T10:09:44.727Z,82656.00
2022-07-25T10:10:44.712Z,87872.00
2022-07-25T10:11:44.707Z,81696.00
2022-07-25T10:12:44.694Z,88224.00
2022-07-25T10:13:44.683Z,90240.00
2022-07-25T10:14:44.673Z,88608.00
2022-07-25T10:15:44.668Z,93152.00
2022-07-25T10:16:44.711Z,86304.00
2022-07-25T10:17:44.652Z,83008.00
2022-07-25T10:18:44.636Z,88448.00
2022-07-25T10:19:50.057Z,87616.00
2022-07-25T10:20:44.616Z,79552.00
2022-07-25T10:21:44.606Z,82720.00
2022-07-25T10:22:59.053Z,85664.00
2022-07-25T10:23:45.606Z,81344.00
2022-07-25T10:24:44.581Z,84832.00
2022-07-25T10:25:48.697Z,84672.00
2022-07-25T10:26:44.568Z,81920.00
2022-07-25T10:27:44.556Z,82656.00
2022-07-25T10:28:44.547Z,83200.00
2022-07-25T10:29:44.537Z,85248.00
2022-07-25T10:30:44.574Z,89472.00
2022-07-25T10:31:49.986Z,93184.00
2022-07-25T10:32:44.496Z,91712.00
2022-07-25T10:33:44.491Z,94720.00
2022-07-25T10:34:44.473Z,92736.00
2022-07-25T10:35:44.462Z,90080.00
2022-07-25T10:36:44.446Z,89920.00
2022-07-25T10:37:48.857Z,94656.00
2022-07-25T10:38:44.429Z,93024.00
2022-07-25T10:39:44.419Z,92544.00
2022-07-25T10:40:44.407Z,89376.00
2022-07-25T10:41:44.406Z,88288.00
2022-07-25T10:42:44.391Z,91808.00
2022-07-25T10:43:48.397Z,91616.00
2022-07-25T10:44:44.375Z,90592.00
2022-07-25T10:45:44.387Z,93408.00
2022-07-25T10:46:44.354Z,94560.00
2022-07-25T10:47:44.346Z,91424.00
2022-07-25T10:48:44.374Z,93600.00
2022-07-25T10:50:13.531Z,88064.00
2022-07-25T10:50:55.382Z,85344.00
2022-07-25T10:51:44.295Z,89152.00
2022-07-25T10:52:44.282Z,87680.00
2022-07-25T10:53:44.280Z,86112.00
2022-07-25T10:54:44.265Z,88032.00
2022-07-25T10:55:44.260Z,92288.00
2022-07-25T10:56:44.246Z,91296.00
2022-07-25T10:58:01.298Z,88768.00
2022-07-25T10:58:44.225Z,85760.00
2022-07-25T10:59:44.213Z,82880.00
2022-07-25T11:00:44.205Z,83264.00
2022-07-25T11:01:44.212Z,81152.00
2022-07-25T11:02:44.225Z,68320.00
2022-07-25T11:03:44.172Z,75968.00
2022-07-25T11:04:44.156Z,64640.00
2022-07-25T11:05:44.162Z,38208.00
2022-07-25T11:06:44.142Z,19840.00
2022-07-25T11:07:58.587Z,15488.00
2022-07-25T11:08:45.145Z,13776.00
2022-07-25T11:09:44.114Z,12640.00
2022-07-25T11:10:44.103Z,11856.00
2022-07-25T11:11:44.098Z,11212.00
2022-07-25T11:12:44.089Z,10712.00
2022-07-25T11:13:44.073Z,10332.00
2022-07-25T11:14:44.059Z,9920.00
2022-07-25T11:15:44.170Z,9712.00
2022-07-25T11:16:44.098Z,9568.00
2022-07-25T11:17:44.035Z,9364.00
2022-07-25T11:18:44.020Z,9340.00
2022-07-25T11:19:44.016Z,9216.00
2022-07-25T11:20:44.004Z,9204.00
2022-07-25T11:21:44.003Z,9064.00
2022-07-25T11:22:43.988Z,9188.00
2022-07-25T11:23:43.985Z,9076.00
2022-07-25T11:24:44.093Z,8988.00
2022-07-25T11:25:43.961Z,8928.00
2022-07-25T11:26:43.947Z,8832.00
2022-07-25T11:27:43.941Z,8760.00
2022-07-25T11:28:43.928Z,8860.00
2022-07-25T11:29:43.925Z,8988.00
2022-07-25T11:30:43.913Z,9056.00
2022-07-25T11:31:44.011Z,9200.00
2022-07-25T11:32:43.894Z,9376.00
2022-07-25T11:33:43.891Z,9572.00
2022-07-25T11:34:43.958Z,9816.00
2022-07-25T11:35:43.868Z,10004.00
2022-07-25T11:36:43.857Z,10248.00
2022-07-25T11:37:43.848Z,10460.00
2022-07-25T11:38:43.834Z,10488.00
2022-07-25T11:39:43.826Z,10360.00
2022-07-25T11:40:43.817Z,9624.00
2022-07-25T11:41:43.806Z,8880.00
2022-07-25T11:42:43.794Z,8444.00
2022-07-25T11:43:43.786Z,8168.00
2022-07-25T11:44:47.656Z,7916.00
2022-07-25T11:45:43.850Z,7720.00
2022-07-25T11:46:43.756Z,7528.00
2022-07-25T11:47:43.746Z,7596.00
2022-07-25T11:48:43.768Z,7608.00
2022-07-25T11:49:43.806Z,7712.00
2022-07-25T11:50:43.732Z,8028.00
2022-07-25T11:51:43.711Z,8604.00
2022-07-25T11:52:43.695Z,12196.00
2022-07-25T11:53:43.695Z,9436.00
2022-07-25T11:54:43.756Z,8244.00
2022-07-25T11:55:43.690Z,8784.00
2022-07-25T11:56:44.090Z,8920.00
2022-07-25T11:57:43.650Z,9324.00
2022-07-25T11:58:43.643Z,10876.00
2022-07-25T11:59:43.630Z,17952.00
2022-07-25T12:00:43.625Z,54816.00
2022-07-25T12:01:43.622Z,88000.00
2022-07-25T12:02:43.776Z,85632.00
2022-07-25T12:03:43.665Z,80512.00
2022-07-25T12:04:43.668Z,85952.00
2022-07-25T12:05:43.583Z,84896.00
2022-07-25T12:06:43.574Z,80704.00
2022-07-25T12:07:43.564Z,77696.00
2022-07-25T12:08:43.557Z,71328.00
2022-07-25T12:09:43.582Z,13888.00
2022-07-25T12:10:43.531Z,59328.00
2022-07-25T12:11:43.518Z,61856.00
2022-07-25T12:12:43.511Z,57184.00
2022-07-25T12:13:43.496Z,59136.00
2022-07-25T12:14:43.494Z,26336.00
2022-07-25T12:15:43.474Z,23840.00
2022-07-25T12:16:43.539Z,23136.00
2022-07-25T12:17:43.464Z,18656.00
2022-07-25T12:18:43.542Z,14784.00
2022-07-25T12:19:43.467Z,13108.00
2022-07-25T12:20:43.434Z,13028.00